sensor_id;sensor_type;location;lat;lon;timestamp;P1;durP1;ratioP1;P2;durP2;ratioP2
65238;SDS011;51827;51.186;6.926;2023-02-01T00:00:38;2.03;;;1.20;;
65238;SDS011;51827;51.186;6.926;2023-02-01T00:01:39;2.50;;;1.30;;
65238;SDS011;51827;51.186;6.926;2023-02-01T00:02:39;3.00;;;1.40;;
65238;SDS011;51827;51.186;6.926;2023-02-01T00:03:39;2.27;;;1.40;;
65238;SDS011;51827;51.186;6.926;2023-02-01T00:04:40;1.90;;;1.20;;
65238;SDS011;51827;51.186;6.926;2023-02-01T00:05:40;2.37;;;1.40;;
65238;SDS011;51827;51.186;6.926;2023-02-01T00:06:40;2.90;;;1.50;;
65238;SDS011;51827;51.186;6.926;2023-02-01T00:07:40;2.97;;;1.63;;
65238;SDS011;51827;51.186;6.926;2023-02-01T00:08:41;2.43;;;1.30;;
65238;SDS011;51827;51.186;6.926;2023-02-01T00:09:41;3.27;;;1.27;;
65238;SDS011;51827;51.186;6.926;2023-02-01T00:10:41;2.10;;;1.20;;
65238;SDS011;51827;51.186;6.926;2023-02-01T00:11:41;3.60;;;1.60;;
65238;SDS011;51827;51.186;6.926;2023-02-01T00:12:42;2.77;;;1.53;;
65238;SDS011;51827;51.186;6.926;2023-02-01T00:13:42;2.67;;;1.30;;
65238;SDS011;51827;51.186;6.926;2023-02-01T00:14:42;2.27;;;1.33;;
65238;SDS011;51827;51.186;6.926;2023-02-01T00:15:42;2.80;;;1.60;;
65238;SDS011;51827;51.186;6.926;2023-02-01T00:16:43;2.03;;;1.40;;
65238;SDS011;51827;51.186;6.926;2023-02-01T00:17:43;3.83;;;1.40;;
65238;SDS011;51827;51.186;6.926;2023-02-01T00:18:44;2.53;;;1.63;;
65238;SDS011;51827;51.186;6.926;2023-02-01T00:19:45;2.42;;;1.35;;
65238;SDS011;51827;51.186;6.926;2023-02-01T00:20:46;3.13;;;1.70;;
65238;SDS011;51827;51.186;6.926;2023-02-01T00:21:46;3.72;;;1.60;;
65238;SDS011;51827;51.186;6.926;2023-02-01T00:22:47;2.00;;;1.27;;
65238;SDS011;51827;51.186;6.926;2023-02-01T00:23:47;3.00;;;1.40;;
65238;SDS011;51827;51.186;6.926;2023-02-01T00:24:47;3.03;;;1.48;;
65238;SDS011;51827;51.186;6.926;2023-02-01T00:25:48;3.10;;;1.70;;
65238;SDS011;51827;51.186;6.926;2023-02-01T00:26:48;3.03;;;1.50;;
65238;SDS011;51827;51.186;6.926;2023-02-01T00:27:48;2.77;;;1.30;;
65238;SDS011;51827;51.186;6.926;2023-02-01T00:28:49;2.13;;;1.50;;
65238;SDS011;51827;51.186;6.926;2023-02-01T00:29:49;3.13;;;1.20;;
65238;SDS011;51827;51.186;6.926;2023-02-01T00:30:55;3.73;;;1.40;;
65238;SDS011;51827;51.186;6.926;2023-02-01T00:31:56;2.28;;;1.30;;
65238;SDS011;51827;51.186;6.926;2023-02-01T00:32:57;2.37;;;1.50;;
65238;SDS011;51827;51.186;6.926;2023-02-01T00:33:57;2.47;;;1.37;;
65238;SDS011;51827;51.186;6.926;2023-02-01T00:34:57;2.77;;;1.50;;
65238;SDS011;51827;51.186;6.926;2023-02-01T00:36:02;1.70;;;1.30;;
65238;SDS011;51827;51.186;6.926;2023-02-01T00:37:03;3.65;;;1.60;;
65238;SDS011;51827;51.186;6.926;2023-02-01T00:38:04;2.43;;;1.37;;
65238;SDS011;51827;51.186;6.926;2023-02-01T00:39:04;2.53;;;1.40;;
65238;SDS011;51827;51.186;6.926;2023-02-01T00:40:04;2.37;;;1.33;;
65238;SDS011;51827;51.186;6.926;2023-02-01T00:41:26;2.55;;;1.40;;
65238;SDS011;51827;51.186;6.926;2023-02-01T00:42:26;2.13;;;1.40;;
65238;SDS011;51827;51.186;6.926;2023-02-01T00:43:26;2.10;;;1.40;;
65238;SDS011;51827;51.186;6.926;2023-02-01T00:44:26;3.17;;;1.30;;
65238;SDS011;51827;51.186;6.926;2023-02-01T00:45:26;2.17;;;1.50;;
65238;SDS011;51827;51.186;6.926;2023-02-01T00:46:27;2.57;;;1.40;;
65238;SDS011;51827;51.186;6.926;2023-02-01T00:47:27;1.98;;;1.30;;
65238;SDS011;51827;51.186;6.926;2023-02-01T00:48:27;1.93;;;1.30;;
65238;SDS011;51827;51.186;6.926;2023-02-01T00:49:28;2.50;;;1.50;;
65238;SDS011;51827;51.186;6.926;2023-02-01T00:50:28;3.35;;;1.60;;
65238;SDS011;51827;51.186;6.926;2023-02-01T00:51:29;2.53;;;1.40;;
65238;SDS011;51827;51.186;6.926;2023-02-01T00:52:29;2.75;;;1.60;;
65238;SDS011;51827;51.186;6.926;2023-02-01T00:53:30;2.60;;;1.50;;
65238;SDS011;51827;51.186;6.926;2023-02-01T00:54:30;3.92;;;1.38;;
65238;SDS011;51827;51.186;6.926;2023-02-01T00:55:31;2.33;;;1.30;;
65238;SDS011;51827;51.186;6.926;2023-02-01T00:56:31;1.93;;;1.40;;
65238;SDS011;51827;51.186;6.926;2023-02-01T00:57:31;2.20;;;1.40;;
65238;SDS011;51827;51.186;6.926;2023-02-01T00:58:32;2.60;;;1.40;;
65238;SDS011;51827;51.186;6.926;2023-02-01T00:59:32;2.58;;;1.42;;
65238;SDS011;51827;51.186;6.926;2023-02-01T01:00:32;3.17;;;1.47;;
65238;SDS011;51827;51.186;6.926;2023-02-01T01:01:33;2.17;;;1.40;;
65238;SDS011;51827;51.186;6.926;2023-02-01T01:02:33;3.17;;;1.47;;
65238;SDS011;51827;51.186;6.926;2023-02-01T01:03:34;2.83;;;1.40;;
65238;SDS011;51827;51.186;6.926;2023-02-01T01:04:36;2.60;;;1.38;;
65238;SDS011;51827;51.186;6.926;2023-02-01T01:05:36;2.23;;;1.50;;
65238;SDS011;51827;51.186;6.926;2023-02-01T01:06:36;2.37;;;1.37;;
65238;SDS011;51827;51.186;6.926;2023-02-01T01:07:36;2.43;;;1.43;;
65238;SDS011;51827;51.186;6.926;2023-02-01T01:08:37;2.77;;;1.50;;
65238;SDS011;51827;51.186;6.926;2023-02-01T01:09:38;2.08;;;1.35;;
65238;SDS011;51827;51.186;6.926;2023-02-01T01:10:38;2.50;;;1.40;;
65238;SDS011;51827;51.186;6.926;2023-02-01T01:11:39;2.40;;;1.23;;
65238;SDS011;51827;51.186;6.926;2023-02-01T01:12:39;2.73;;;1.40;;
65238;SDS011;51827;51.186;6.926;2023-02-01T01:13:40;2.77;;;1.47;;
65238;SDS011;51827;51.186;6.926;2023-02-01T01:14:41;2.38;;;1.27;;
65238;SDS011;51827;51.186;6.926;2023-02-01T01:15:41;2.97;;;1.33;;
65238;SDS011;51827;51.186;6.926;2023-02-01T01:16:41;2.30;;;1.45;;
65238;SDS011;51827;51.186;6.926;2023-02-01T01:17:41;3.30;;;1.57;;
65238;SDS011;51827;51.186;6.926;2023-02-01T01:18:42;3.33;;;1.40;;
65238;SDS011;51827;51.186;6.926;2023-02-01T01:19:43;2.38;;;1.30;;
65238;SDS011;51827;51.186;6.926;2023-02-01T01:20:43;2.10;;;1.40;;
65238;SDS011;51827;51.186;6.926;2023-02-01T01:21:44;2.42;;;1.50;;
65238;SDS011;51827;51.186;6.926;2023-02-01T01:22:44;3.27;;;1.50;;
65238;SDS011;51827;51.186;6.926;2023-02-01T01:23:45;1.93;;;1.30;;
65238;SDS011;51827;51.186;6.926;2023-02-01T01:24:46;2.17;;;1.30;;
65238;SDS011;51827;51.186;6.926;2023-02-01T01:25:46;2.87;;;1.40;;
65238;SDS011;51827;51.186;6.926;2023-02-01T01:26:46;2.53;;;1.47;;
65238;SDS011;51827;51.186;6.926;2023-02-01T01:27:46;2.77;;;1.40;;
65238;SDS011;51827;51.186;6.926;2023-02-01T01:28:47;4.78;;;1.42;;
65238;SDS011;51827;51.186;6.926;2023-02-01T01:29:47;2.40;;;1.20;;
65238;SDS011;51827;51.186;6.926;2023-02-01T01:30:47;2.37;;;1.67;;
65238;SDS011;51827;51.186;6.926;2023-02-01T01:31:48;2.00;;;1.30;;
65238;SDS011;51827;51.186;6.926;2023-02-01T01:32:48;2.37;;;1.40;;
65238;SDS011;51827;51.186;6.926;2023-02-01T01:33:52;2.23;;;1.30;;
65238;SDS011;51827;51.186;6.926;2023-02-01T01:34:53;3.75;;;1.27;;
65238;SDS011;51827;51.186;6.926;2023-02-01T01:35:54;2.83;;;1.50;;
65238;SDS011;51827;51.186;6.926;2023-02-01T01:36:54;2.70;;;1.42;;
65238;SDS011;51827;51.186;6.926;2023-02-01T01:37:54;2.13;;;1.20;;
65238;SDS011;51827;51.186;6.926;2023-02-01T01:38:55;2.53;;;1.40;;
65238;SDS011;51827;51.186;6.926;2023-02-01T01:39:55;3.53;;;1.40;;
65238;SDS011;51827;51.186;6.926;2023-02-01T01:40:55;2.50;;;1.57;;
65238;SDS011;51827;51.186;6.926;2023-02-01T01:41:55;2.80;;;1.40;;
65238;SDS011;51827;51.186;6.926;2023-02-01T01:42:56;2.75;;;1.40;;
65238;SDS011;51827;51.186;6.926;2023-02-01T01:43:58;2.72;;;1.60;;
65238;SDS011;51827;51.186;6.926;2023-02-01T01:45:07;3.10;;;1.40;;
65238;SDS011;51827;51.186;6.926;2023-02-01T01:46:14;2.20;;;1.30;;
65238;SDS011;51827;51.186;6.926;2023-02-01T01:47:15;3.28;;;1.40;;
65238;SDS011;51827;51.186;6.926;2023-02-01T01:48:24;3.42;;;1.70;;
65238;SDS011;51827;51.186;6.926;2023-02-01T01:49:27;2.85;;;1.50;;
65238;SDS011;51827;51.186;6.926;2023-02-01T01:50:35;2.53;;;1.33;;
65238;SDS011;51827;51.186;6.926;2023-02-01T01:51:44;2.53;;;1.40;;
65238;SDS011;51827;51.186;6.926;2023-02-01T01:52:56;2.38;;;1.30;;
65238;SDS011;51827;51.186;6.926;2023-02-01T01:54:20;3.08;;;1.38;;
65238;SDS011;51827;51.186;6.926;2023-02-01T01:55:24;2.22;;;1.40;;
65238;SDS011;51827;51.186;6.926;2023-02-01T01:56:27;1.88;;;1.20;;
65238;SDS011;51827;51.186;6.926;2023-02-01T01:57:31;3.25;;;1.50;;
65238;SDS011;51827;51.186;6.926;2023-02-01T01:58:35;2.20;;;1.40;;
65238;SDS011;51827;51.186;6.926;2023-02-01T02:00:38;1.90;;;1.20;;
65238;SDS011;51827;51.186;6.926;2023-02-01T02:01:39;3.28;;;1.40;;
65238;SDS011;51827;51.186;6.926;2023-02-01T02:02:43;3.10;;;1.60;;
65238;SDS011;51827;51.186;6.926;2023-02-01T02:03:46;2.08;;;1.20;;
65238;SDS011;51827;51.186;6.926;2023-02-01T02:04:47;2.53;;;1.50;;
65238;SDS011;51827;51.186;6.926;2023-02-01T02:05:48;3.13;;;1.50;;
65238;SDS011;51827;51.186;6.926;2023-02-01T02:06:58;2.90;;;1.50;;
65238;SDS011;51827;51.186;6.926;2023-02-01T02:08:02;2.70;;;1.42;;
65238;SDS011;51827;51.186;6.926;2023-02-01T02:09:03;2.53;;;1.53;;
65238;SDS011;51827;51.186;6.926;2023-02-01T02:10:04;2.00;;;1.40;;
65238;SDS011;51827;51.186;6.926;2023-02-01T02:11:06;3.70;;;1.50;;
65238;SDS011;51827;51.186;6.926;2023-02-01T02:12:07;2.50;;;1.20;;
65238;SDS011;51827;51.186;6.926;2023-02-01T02:13:07;2.50;;;1.50;;
65238;SDS011;51827;51.186;6.926;2023-02-01T02:14:09;2.42;;;1.42;;
65238;SDS011;51827;51.186;6.926;2023-02-01T02:15:14;2.97;;;1.40;;
65238;SDS011;51827;51.186;6.926;2023-02-01T02:21:33;2.33;;;1.30;;
65238;SDS011;51827;51.186;6.926;2023-02-01T02:30:50;3.50;;;1.40;;
65238;SDS011;51827;51.186;6.926;2023-02-01T02:32:03;2.80;;;1.30;;
65238;SDS011;51827;51.186;6.926;2023-02-01T02:38:52;2.40;;;1.30;;
65238;SDS011;51827;51.186;6.926;2023-02-01T02:41:15;4.07;;;1.45;;
65238;SDS011;51827;51.186;6.926;2023-02-01T02:42:26;1.58;;;1.10;;
65238;SDS011;51827;51.186;6.926;2023-02-01T02:43:39;2.53;;;1.40;;
65238;SDS011;51827;51.186;6.926;2023-02-01T02:44:54;2.72;;;1.40;;
65238;SDS011;51827;51.186;6.926;2023-02-01T02:46:24;1.90;;;1.30;;
65238;SDS011;51827;51.186;6.926;2023-02-01T02:49:09;3.13;;;1.40;;
65238;SDS011;51827;51.186;6.926;2023-02-01T02:50:17;2.20;;;1.20;;
65238;SDS011;51827;51.186;6.926;2023-02-01T02:51:25;1.85;;;1.33;;
65238;SDS011;51827;51.186;6.926;2023-02-01T02:52:32;2.38;;;1.38;;
65238;SDS011;51827;51.186;6.926;2023-02-01T02:53:41;2.13;;;1.33;;
65238;SDS011;51827;51.186;6.926;2023-02-01T02:54:49;2.17;;;1.40;;
65238;SDS011;51827;51.186;6.926;2023-02-01T02:55:52;2.67;;;1.60;;
65238;SDS011;51827;51.186;6.926;2023-02-01T02:56:52;3.55;;;1.40;;
65238;SDS011;51827;51.186;6.926;2023-02-01T02:57:56;3.13;;;1.67;;
65238;SDS011;51827;51.186;6.926;2023-02-01T02:58:58;2.05;;;1.35;;
65238;SDS011;51827;51.186;6.926;2023-02-01T02:59:59;2.17;;;1.40;;
65238;SDS011;51827;51.186;6.926;2023-02-01T03:01:03;4.57;;;1.50;;
65238;SDS011;51827;51.186;6.926;2023-02-01T03:02:04;3.95;;;1.60;;
65238;SDS011;51827;51.186;6.926;2023-02-01T03:03:05;2.47;;;1.35;;
65238;SDS011;51827;51.186;6.926;2023-02-01T03:04:07;2.65;;;1.40;;
65238;SDS011;51827;51.186;6.926;2023-02-01T03:05:07;2.10;;;1.40;;
65238;SDS011;51827;51.186;6.926;2023-02-01T03:06:14;2.77;;;1.40;;
65238;SDS011;51827;51.186;6.926;2023-02-01T03:08:44;2.50;;;1.40;;
65238;SDS011;51827;51.186;6.926;2023-02-01T03:09:44;2.70;;;1.33;;
65238;SDS011;51827;51.186;6.926;2023-02-01T03:12:08;3.10;;;1.58;;
65238;SDS011;51827;51.186;6.926;2023-02-01T03:13:15;3.53;;;1.35;;
65238;SDS011;51827;51.186;6.926;2023-02-01T03:14:24;2.03;;;1.30;;
65238;SDS011;51827;51.186;6.926;2023-02-01T03:15:32;3.50;;;1.50;;
65238;SDS011;51827;51.186;6.926;2023-02-01T03:16:52;3.15;;;1.50;;
65238;SDS011;51827;51.186;6.926;2023-02-01T03:18:01;2.72;;;1.38;;
65238;SDS011;51827;51.186;6.926;2023-02-01T03:20:27;2.15;;;1.20;;
65238;SDS011;51827;51.186;6.926;2023-02-01T03:22:40;4.05;;;1.40;;
65238;SDS011;51827;51.186;6.926;2023-02-01T03:23:43;2.70;;;1.50;;
65238;SDS011;51827;51.186;6.926;2023-02-01T03:24:46;2.60;;;1.50;;
65238;SDS011;51827;51.186;6.926;2023-02-01T03:25:53;2.58;;;1.20;;
65238;SDS011;51827;51.186;6.926;2023-02-01T03:26:56;2.38;;;1.42;;
65238;SDS011;51827;51.186;6.926;2023-02-01T03:28:05;2.58;;;1.33;;
65238;SDS011;51827;51.186;6.926;2023-02-01T03:29:09;1.98;;;1.27;;
65238;SDS011;51827;51.186;6.926;2023-02-01T03:30:21;2.53;;;1.42;;
65238;SDS011;51827;51.186;6.926;2023-02-01T03:31:41;2.38;;;1.65;;
65238;SDS011;51827;51.186;6.926;2023-02-01T03:32:42;2.72;;;1.38;;
65238;SDS011;51827;51.186;6.926;2023-02-01T03:33:42;2.30;;;1.30;;
65238;SDS011;51827;51.186;6.926;2023-02-01T03:34:43;2.70;;;1.60;;
65238;SDS011;51827;51.186;6.926;2023-02-01T03:35:44;2.30;;;1.38;;
65238;SDS011;51827;51.186;6.926;2023-02-01T03:36:57;2.90;;;1.27;;
65238;SDS011;51827;51.186;6.926;2023-02-01T03:38:08;2.42;;;1.17;;
65238;SDS011;51827;51.186;6.926;2023-02-01T03:39:23;2.38;;;1.30;;
65238;SDS011;51827;51.186;6.926;2023-02-01T03:40:30;3.25;;;1.63;;
65238;SDS011;51827;51.186;6.926;2023-02-01T03:42:38;3.33;;;1.30;;
65238;SDS011;51827;51.186;6.926;2023-02-01T03:45:14;2.33;;;1.40;;
65238;SDS011;51827;51.186;6.926;2023-02-01T03:46:30;3.03;;;1.35;;
65238;SDS011;51827;51.186;6.926;2023-02-01T03:47:35;2.30;;;1.35;;
65238;SDS011;51827;51.186;6.926;2023-02-01T03:48:39;3.00;;;1.42;;
65238;SDS011;51827;51.186;6.926;2023-02-01T03:49:44;2.65;;;1.42;;
65238;SDS011;51827;51.186;6.926;2023-02-01T03:50:58;2.95;;;1.45;;
65238;SDS011;51827;51.186;6.926;2023-02-01T03:52:01;2.80;;;1.30;;
65238;SDS011;51827;51.186;6.926;2023-02-01T03:53:07;2.75;;;1.60;;
65238;SDS011;51827;51.186;6.926;2023-02-01T03:54:12;2.25;;;1.33;;
65238;SDS011;51827;51.186;6.926;2023-02-01T03:55:15;2.35;;;1.30;;
65238;SDS011;51827;51.186;6.926;2023-02-01T03:56:17;2.17;;;1.20;;
65238;SDS011;51827;51.186;6.926;2023-02-01T03:57:22;2.65;;;1.60;;
65238;SDS011;51827;51.186;6.926;2023-02-01T03:58:26;2.22;;;1.38;;
65238;SDS011;51827;51.186;6.926;2023-02-01T03:59:27;2.60;;;1.47;;
65238;SDS011;51827;51.186;6.926;2023-02-01T04:00:27;2.53;;;1.20;;
65238;SDS011;51827;51.186;6.926;2023-02-01T04:01:29;2.33;;;1.50;;
65238;SDS011;51827;51.186;6.926;2023-02-01T04:02:30;2.80;;;1.30;;
65238;SDS011;51827;51.186;6.926;2023-02-01T04:03:30;2.97;;;1.33;;
65238;SDS011;51827;51.186;6.926;2023-02-01T04:04:30;3.17;;;1.67;;
65238;SDS011;51827;51.186;6.926;2023-02-01T04:05:31;2.33;;;1.30;;
65238;SDS011;51827;51.186;6.926;2023-02-01T04:06:31;2.53;;;1.40;;
65238;SDS011;51827;51.186;6.926;2023-02-01T04:07:31;2.15;;;1.30;;
65238;SDS011;51827;51.186;6.926;2023-02-01T04:08:32;3.67;;;1.43;;
65238;SDS011;51827;51.186;6.926;2023-02-01T04:09:32;3.67;;;1.53;;
65238;SDS011;51827;51.186;6.926;2023-02-01T04:10:32;3.17;;;1.33;;
65238;SDS011;51827;51.186;6.926;2023-02-01T04:11:32;2.43;;;1.30;;
65238;SDS011;51827;51.186;6.926;2023-02-01T04:12:33;3.23;;;1.40;;
65238;SDS011;51827;51.186;6.926;2023-02-01T04:13:33;1.97;;;1.30;;
65238;SDS011;51827;51.186;6.926;2023-02-01T04:14:33;3.50;;;1.30;;
65238;SDS011;51827;51.186;6.926;2023-02-01T04:15:33;3.63;;;1.53;;
65238;SDS011;51827;51.186;6.926;2023-02-01T04:16:34;2.17;;;1.20;;
65238;SDS011;51827;51.186;6.926;2023-02-01T04:17:34;2.00;;;1.40;;
65238;SDS011;51827;51.186;6.926;2023-02-01T04:18:35;2.10;;;1.27;;
65238;SDS011;51827;51.186;6.926;2023-02-01T04:19:35;3.10;;;1.33;;
65238;SDS011;51827;51.186;6.926;2023-02-01T04:20:35;2.77;;;1.40;;
65238;SDS011;51827;51.186;6.926;2023-02-01T04:21:35;2.80;;;1.50;;
65238;SDS011;51827;51.186;6.926;2023-02-01T04:22:36;2.40;;;1.23;;
65238;SDS011;51827;51.186;6.926;2023-02-01T04:23:36;3.53;;;1.40;;
65238;SDS011;51827;51.186;6.926;2023-02-01T04:24:36;2.90;;;1.50;;
65238;SDS011;51827;51.186;6.926;2023-02-01T04:25:37;3.30;;;1.60;;
65238;SDS011;51827;51.186;6.926;2023-02-01T04:26:37;2.63;;;1.53;;
65238;SDS011;51827;51.186;6.926;2023-02-01T04:27:37;3.13;;;1.60;;
65238;SDS011;51827;51.186;6.926;2023-02-01T04:28:37;3.33;;;1.40;;
65238;SDS011;51827;51.186;6.926;2023-02-01T04:29:37;1.93;;;1.20;;
65238;SDS011;51827;51.186;6.926;2023-02-01T04:30:38;2.30;;;1.40;;
65238;SDS011;51827;51.186;6.926;2023-02-01T04:31:38;2.13;;;1.20;;
65238;SDS011;51827;51.186;6.926;2023-02-01T04:32:38;2.00;;;1.30;;
65238;SDS011;51827;51.186;6.926;2023-02-01T04:33:39;4.35;;;1.55;;
65238;SDS011;51827;51.186;6.926;2023-02-01T04:34:39;2.53;;;1.30;;
65238;SDS011;51827;51.186;6.926;2023-02-01T04:35:40;2.30;;;1.30;;
65238;SDS011;51827;51.186;6.926;2023-02-01T04:36:40;3.08;;;1.30;;
65238;SDS011;51827;51.186;6.926;2023-02-01T04:37:40;3.67;;;1.53;;
65238;SDS011;51827;51.186;6.926;2023-02-01T04:38:40;3.87;;;1.43;;
65238;SDS011;51827;51.186;6.926;2023-02-01T04:39:41;3.40;;;1.50;;
65238;SDS011;51827;51.186;6.926;2023-02-01T04:40:41;2.80;;;1.37;;
65238;SDS011;51827;51.186;6.926;2023-02-01T04:41:41;2.50;;;1.30;;
65238;SDS011;51827;51.186;6.926;2023-02-01T04:42:41;2.93;;;1.50;;
65238;SDS011;51827;51.186;6.926;2023-02-01T04:43:42;4.23;;;1.67;;
65238;SDS011;51827;51.186;6.926;2023-02-01T04:44:42;2.77;;;1.40;;
65238;SDS011;51827;51.186;6.926;2023-02-01T04:45:46;3.37;;;1.47;;
65238;SDS011;51827;51.186;6.926;2023-02-01T04:46:48;2.08;;;1.23;;
65238;SDS011;51827;51.186;6.926;2023-02-01T04:47:48;2.10;;;1.25;;
65238;SDS011;51827;51.186;6.926;2023-02-01T04:48:48;2.97;;;1.37;;
65238;SDS011;51827;51.186;6.926;2023-02-01T04:49:48;3.20;;;1.70;;
65238;SDS011;51827;51.186;6.926;2023-02-01T04:50:49;1.87;;;1.17;;
65238;SDS011;51827;51.186;6.926;2023-02-01T04:51:49;2.87;;;1.50;;
65238;SDS011;51827;51.186;6.926;2023-02-01T04:52:49;2.10;;;1.33;;
65238;SDS011;51827;51.186;6.926;2023-02-01T04:53:49;2.70;;;1.40;;
65238;SDS011;51827;51.186;6.926;2023-02-01T04:54:50;2.20;;;1.30;;
65238;SDS011;51827;51.186;6.926;2023-02-01T04:55:50;2.90;;;1.47;;
65238;SDS011;51827;51.186;6.926;2023-02-01T04:56:50;3.63;;;1.37;;
65238;SDS011;51827;51.186;6.926;2023-02-01T04:57:50;3.77;;;1.57;;
65238;SDS011;51827;51.186;6.926;2023-02-01T04:58:51;2.53;;;1.40;;
65238;SDS011;51827;51.186;6.926;2023-02-01T04:59:51;6.27;;;1.50;;
65238;SDS011;51827;51.186;6.926;2023-02-01T05:00:51;2.93;;;1.50;;
65238;SDS011;51827;51.186;6.926;2023-02-01T05:01:51;3.37;;;1.33;;
65238;SDS011;51827;51.186;6.926;2023-02-01T05:02:52;2.93;;;1.43;;
65238;SDS011;51827;51.186;6.926;2023-02-01T05:03:52;4.37;;;1.47;;
65238;SDS011;51827;51.186;6.926;2023-02-01T05:04:52;3.30;;;1.43;;
65238;SDS011;51827;51.186;6.926;2023-02-01T05:05:52;3.03;;;1.50;;
65238;SDS011;51827;51.186;6.926;2023-02-01T05:06:53;5.67;;;2.27;;
65238;SDS011;51827;51.186;6.926;2023-02-01T05:07:53;3.43;;;1.40;;
65238;SDS011;51827;51.186;6.926;2023-02-01T05:08:53;3.40;;;1.60;;
65238;SDS011;51827;51.186;6.926;2023-02-01T05:09:53;2.80;;;1.57;;
65238;SDS011;51827;51.186;6.926;2023-02-01T05:10:54;6.23;;;1.70;;
65238;SDS011;51827;51.186;6.926;2023-02-01T05:11:54;4.20;;;1.50;;
65238;SDS011;51827;51.186;6.926;2023-02-01T05:12:54;3.23;;;1.50;;
65238;SDS011;51827;51.186;6.926;2023-02-01T05:13:54;3.43;;;1.47;;
65238;SDS011;51827;51.186;6.926;2023-02-01T05:14:55;2.00;;;1.27;;
65238;SDS011;51827;51.186;6.926;2023-02-01T05:15:55;4.50;;;1.47;;
65238;SDS011;51827;51.186;6.926;2023-02-01T05:16:55;9.73;;;1.40;;
65238;SDS011;51827;51.186;6.926;2023-02-01T05:17:56;2.67;;;1.40;;
65238;SDS011;51827;51.186;6.926;2023-02-01T05:18:56;4.15;;;1.40;;
65238;SDS011;51827;51.186;6.926;2023-02-01T05:19:56;3.33;;;1.30;;
65238;SDS011;51827;51.186;6.926;2023-02-01T05:20:57;3.17;;;1.50;;
65238;SDS011;51827;51.186;6.926;2023-02-01T05:21:57;4.10;;;1.50;;
65238;SDS011;51827;51.186;6.926;2023-02-01T05:22:57;3.23;;;1.53;;
65238;SDS011;51827;51.186;6.926;2023-02-01T05:23:57;2.67;;;1.50;;
65238;SDS011;51827;51.186;6.926;2023-02-01T05:24:58;2.37;;;1.30;;
65238;SDS011;51827;51.186;6.926;2023-02-01T05:26:01;4.83;;;1.40;;
65238;SDS011;51827;51.186;6.926;2023-02-01T05:27:01;12.27;;;2.85;;
65238;SDS011;51827;51.186;6.926;2023-02-01T05:28:02;7.60;;;2.58;;
65238;SDS011;51827;51.186;6.926;2023-02-01T05:29:02;6.93;;;2.30;;
65238;SDS011;51827;51.186;6.926;2023-02-01T05:30:04;9.20;;;2.38;;
65238;SDS011;51827;51.186;6.926;2023-02-01T05:31:09;9.68;;;2.10;;
65238;SDS011;51827;51.186;6.926;2023-02-01T05:32:10;10.23;;;2.90;;
65238;SDS011;51827;51.186;6.926;2023-02-01T05:33:10;18.42;;;2.72;;
65238;SDS011;51827;51.186;6.926;2023-02-01T05:34:10;11.57;;;2.63;;
65238;SDS011;51827;51.186;6.926;2023-02-01T05:35:10;9.53;;;2.73;;
65238;SDS011;51827;51.186;6.926;2023-02-01T05:36:11;7.37;;;2.77;;
65238;SDS011;51827;51.186;6.926;2023-02-01T05:37:11;10.17;;;2.73;;
65238;SDS011;51827;51.186;6.926;2023-02-01T05:38:11;10.80;;;2.83;;
65238;SDS011;51827;51.186;6.926;2023-02-01T05:39:12;11.93;;;3.00;;
65238;SDS011;51827;51.186;6.926;2023-02-01T05:40:12;10.30;;;2.80;;
65238;SDS011;51827;51.186;6.926;2023-02-01T05:41:12;8.93;;;2.60;;
65238;SDS011;51827;51.186;6.926;2023-02-01T05:42:13;7.63;;;2.87;;
65238;SDS011;51827;51.186;6.926;2023-02-01T05:43:13;7.93;;;2.27;;
65238;SDS011;51827;51.186;6.926;2023-02-01T05:44:13;9.00;;;2.43;;
65238;SDS011;51827;51.186;6.926;2023-02-01T05:45:14;7.67;;;2.60;;
65238;SDS011;51827;51.186;6.926;2023-02-01T05:46:14;11.57;;;2.58;;
65238;SDS011;51827;51.186;6.926;2023-02-01T05:47:14;10.55;;;2.80;;
65238;SDS011;51827;51.186;6.926;2023-02-01T05:48:15;8.97;;;2.43;;
65238;SDS011;51827;51.186;6.926;2023-02-01T05:49:15;7.40;;;2.30;;
65238;SDS011;51827;51.186;6.926;2023-02-01T05:50:16;20.07;;;2.60;;
65238;SDS011;51827;51.186;6.926;2023-02-01T05:51:16;11.52;;;2.40;;
65238;SDS011;51827;51.186;6.926;2023-02-01T05:52:16;6.90;;;2.07;;
65238;SDS011;51827;51.186;6.926;2023-02-01T05:53:17;8.00;;;2.83;;
65238;SDS011;51827;51.186;6.926;2023-02-01T05:54:17;8.73;;;2.40;;
65238;SDS011;51827;51.186;6.926;2023-02-01T05:55:17;9.10;;;2.20;;
65238;SDS011;51827;51.186;6.926;2023-02-01T05:56:17;8.83;;;2.30;;
65238;SDS011;51827;51.186;6.926;2023-02-01T05:57:17;6.17;;;1.90;;
65238;SDS011;51827;51.186;6.926;2023-02-01T05:58:18;11.60;;;2.27;;
65238;SDS011;51827;51.186;6.926;2023-02-01T05:59:18;9.93;;;2.37;;
65238;SDS011;51827;51.186;6.926;2023-02-01T06:00:18;9.40;;;2.40;;
65238;SDS011;51827;51.186;6.926;2023-02-01T06:01:19;6.28;;;2.28;;
65238;SDS011;51827;51.186;6.926;2023-02-01T06:02:19;6.00;;;2.20;;
65238;SDS011;51827;51.186;6.926;2023-02-01T06:03:20;9.57;;;2.47;;
65238;SDS011;51827;51.186;6.926;2023-02-01T06:04:20;6.50;;;2.37;;
65238;SDS011;51827;51.186;6.926;2023-02-01T06:05:20;8.50;;;2.30;;
65238;SDS011;51827;51.186;6.926;2023-02-01T06:06:21;6.20;;;2.42;;
65238;SDS011;51827;51.186;6.926;2023-02-01T06:07:21;5.90;;;2.07;;
65238;SDS011;51827;51.186;6.926;2023-02-01T06:08:21;6.57;;;2.23;;
65238;SDS011;51827;51.186;6.926;2023-02-01T06:09:21;6.87;;;2.23;;
65238;SDS011;51827;51.186;6.926;2023-02-01T06:10:22;7.67;;;2.20;;
65238;SDS011;51827;51.186;6.926;2023-02-01T06:11:22;5.70;;;2.07;;
65238;SDS011;51827;51.186;6.926;2023-02-01T06:12:22;7.03;;;2.43;;
65238;SDS011;51827;51.186;6.926;2023-02-01T06:13:23;7.53;;;2.00;;
65238;SDS011;51827;51.186;6.926;2023-02-01T06:14:23;7.27;;;2.13;;
65238;SDS011;51827;51.186;6.926;2023-02-01T06:15:23;8.33;;;2.10;;
65238;SDS011;51827;51.186;6.926;2023-02-01T06:16:23;6.73;;;2.00;;
65238;SDS011;51827;51.186;6.926;2023-02-01T06:17:24;5.97;;;2.00;;
65238;SDS011;51827;51.186;6.926;2023-02-01T06:18:24;5.43;;;2.00;;
65238;SDS011;51827;51.186;6.926;2023-02-01T06:19:25;7.07;;;2.30;;
65238;SDS011;51827;51.186;6.926;2023-02-01T06:20:25;5.45;;;1.85;;
65238;SDS011;51827;51.186;6.926;2023-02-01T06:21:26;5.73;;;2.23;;
65238;SDS011;51827;51.186;6.926;2023-02-01T06:22:26;5.27;;;2.00;;
65238;SDS011;51827;51.186;6.926;2023-02-01T06:23:27;6.53;;;2.17;;
65238;SDS011;51827;51.186;6.926;2023-02-01T06:24:28;4.47;;;1.90;;
65238;SDS011;51827;51.186;6.926;2023-02-01T06:25:28;8.23;;;1.97;;
65238;SDS011;51827;51.186;6.926;2023-02-01T06:26:28;5.83;;;2.03;;
65238;SDS011;51827;51.186;6.926;2023-02-01T06:27:28;10.27;;;2.73;;
65238;SDS011;51827;51.186;6.926;2023-02-01T06:28:29;7.70;;;2.33;;
65238;SDS011;51827;51.186;6.926;2023-02-01T06:29:30;9.98;;;2.30;;
65238;SDS011;51827;51.186;6.926;2023-02-01T06:30:31;6.70;;;1.90;;
65238;SDS011;51827;51.186;6.926;2023-02-01T06:31:32;6.95;;;1.92;;
65238;SDS011;51827;51.186;6.926;2023-02-01T06:32:32;6.35;;;1.90;;
65238;SDS011;51827;51.186;6.926;2023-02-01T06:33:33;5.20;;;2.07;;
65238;SDS011;51827;51.186;6.926;2023-02-01T06:35:34;7.00;;;2.00;;
65238;SDS011;51827;51.186;6.926;2023-02-01T06:36:34;5.67;;;2.20;;
65238;SDS011;51827;51.186;6.926;2023-02-01T06:37:36;6.10;;;2.30;;
65238;SDS011;51827;51.186;6.926;2023-02-01T06:38:36;5.78;;;2.17;;
65238;SDS011;51827;51.186;6.926;2023-02-01T06:39:37;5.53;;;2.00;;
65238;SDS011;51827;51.186;6.926;2023-02-01T06:40:37;6.00;;;2.23;;
65238;SDS011;51827;51.186;6.926;2023-02-01T06:41:38;6.63;;;2.30;;
65238;SDS011;51827;51.186;6.926;2023-02-01T06:42:38;4.87;;;1.73;;
65238;SDS011;51827;51.186;6.926;2023-02-01T06:43:38;6.50;;;2.30;;
65238;SDS011;51827;51.186;6.926;2023-02-01T06:44:39;5.93;;;2.20;;
65238;SDS011;51827;51.186;6.926;2023-02-01T06:45:39;5.70;;;2.00;;